sensor_id;sensor_type;location;lat;lon;timestamp;P1;durP1;ratioP1;P2;durP2;ratioP2
8232;SDS011;4157;48.074;9.952;2022-11-20T00:01:35;6.70;;;4.65;;
8232;SDS011;4157;48.074;9.952;2022-11-20T00:04:03;6.68;;;4.40;;
8232;SDS011;4157;48.074;9.952;2022-11-20T00:06:30;6.95;;;4.50;;
8232;SDS011;4157;48.074;9.952;2022-11-20T00:08:59;6.43;;;4.10;;
8232;SDS011;4157;48.074;9.952;2022-11-20T00:11:29;6.18;;;4.20;;
8232;SDS011;4157;48.074;9.952;2022-11-20T00:13:58;7.22;;;4.82;;
8232;SDS011;4157;48.074;9.952;2022-11-20T00:16:27;6.53;;;3.95;;
8232;SDS011;4157;48.074;9.952;2022-11-20T00:18:55;7.22;;;4.03;;
8232;SDS011;4157;48.074;9.952;2022-11-20T00:21:24;5.88;;;4.03;;
8232;SDS011;4157;48.074;9.952;2022-11-20T00:23:53;5.13;;;3.50;;
8232;SDS011;4157;48.074;9.952;2022-11-20T00:26:21;5.32;;;3.75;;
8232;SDS011;4157;48.074;9.952;2022-11-20T00:28:51;6.13;;;3.58;;
8232;SDS011;4157;48.074;9.952;2022-11-20T00:31:19;5.25;;;3.80;;
8232;SDS011;4157;48.074;9.952;2022-11-20T00:33:47;6.28;;;3.50;;
8232;SDS011;4157;48.074;9.952;2022-11-20T00:36:15;5.60;;;3.58;;
8232;SDS011;4157;48.074;9.952;2022-11-20T00:38:44;5.82;;;3.65;;
8232;SDS011;4157;48.074;9.952;2022-11-20T00:41:13;5.82;;;3.90;;
8232;SDS011;4157;48.074;9.952;2022-11-20T00:43:41;5.50;;;3.63;;
8232;SDS011;4157;48.074;9.952;2022-11-20T00:46:12;4.90;;;3.22;;
8232;SDS011;4157;48.074;9.952;2022-11-20T00:48:40;6.57;;;4.05;;
8232;SDS011;4157;48.074;9.952;2022-11-20T00:51:08;6.30;;;3.85;;
8232;SDS011;4157;48.074;9.952;2022-11-20T00:53:36;6.78;;;4.03;;
8232;SDS011;4157;48.074;9.952;2022-11-20T00:56:04;5.65;;;3.83;;
8232;SDS011;4157;48.074;9.952;2022-11-20T00:58:35;5.18;;;3.85;;
8232;SDS011;4157;48.074;9.952;2022-11-20T01:01:04;6.95;;;4.22;;
8232;SDS011;4157;48.074;9.952;2022-11-20T01:03:34;5.50;;;3.88;;
8232;SDS011;4157;48.074;9.952;2022-11-20T01:06:03;6.25;;;4.18;;
8232;SDS011;4157;48.074;9.952;2022-11-20T01:08:31;7.22;;;4.00;;
8232;SDS011;4157;48.074;9.952;2022-11-20T01:11:00;4.40;;;3.30;;
8232;SDS011;4157;48.074;9.952;2022-11-20T01:13:28;6.07;;;3.95;;
8232;SDS011;4157;48.074;9.952;2022-11-20T01:16:06;5.07;;;3.70;;
8232;SDS011;4157;48.074;9.952;2022-11-20T01:18:36;6.07;;;4.05;;
8232;SDS011;4157;48.074;9.952;2022-11-20T01:21:04;5.65;;;3.70;;
8232;SDS011;4157;48.074;9.952;2022-11-20T01:23:33;5.95;;;4.10;;
8232;SDS011;4157;48.074;9.952;2022-11-20T01:26:01;6.07;;;3.88;;
8232;SDS011;4157;48.074;9.952;2022-11-20T01:28:29;5.38;;;3.50;;
8232;SDS011;4157;48.074;9.952;2022-11-20T01:30:57;5.22;;;3.70;;
8232;SDS011;4157;48.074;9.952;2022-11-20T01:33:25;9.10;;;3.78;;
8232;SDS011;4157;48.074;9.952;2022-11-20T01:36:02;5.65;;;3.65;;
8232;SDS011;4157;48.074;9.952;2022-11-20T01:38:30;5.63;;;3.97;;
8232;SDS011;4157;48.074;9.952;2022-11-20T01:40:58;4.75;;;3.33;;
8232;SDS011;4157;48.074;9.952;2022-11-20T01:43:26;6.50;;;3.85;;
8232;SDS011;4157;48.074;9.952;2022-11-20T01:48:40;5.75;;;3.97;;
8232;SDS011;4157;48.074;9.952;2022-11-20T01:51:12;6.15;;;4.32;;
8232;SDS011;4157;48.074;9.952;2022-11-20T01:53:44;6.30;;;4.32;;
8232;SDS011;4157;48.074;9.952;2022-11-20T01:56:12;6.00;;;4.35;;
8232;SDS011;4157;48.074;9.952;2022-11-20T01:58:42;6.10;;;4.60;;
8232;SDS011;4157;48.074;9.952;2022-11-20T02:01:11;5.80;;;4.15;;
8232;SDS011;4157;48.074;9.952;2022-11-20T02:03:40;6.50;;;4.78;;
8232;SDS011;4157;48.074;9.952;2022-11-20T02:06:10;6.50;;;4.10;;
8232;SDS011;4157;48.074;9.952;2022-11-20T02:08:41;6.57;;;4.43;;
8232;SDS011;4157;48.074;9.952;2022-11-20T02:11:09;6.68;;;4.78;;
8232;SDS011;4157;48.074;9.952;2022-11-20T02:13:38;7.97;;;4.55;;
8232;SDS011;4157;48.074;9.952;2022-11-20T02:16:12;6.38;;;4.50;;
8232;SDS011;4157;48.074;9.952;2022-11-20T02:18:40;5.90;;;4.32;;
8232;SDS011;4157;48.074;9.952;2022-11-20T02:21:09;6.47;;;5.13;;
8232;SDS011;4157;48.074;9.952;2022-11-20T02:23:39;8.18;;;5.60;;
8232;SDS011;4157;48.074;9.952;2022-11-20T02:26:12;7.93;;;5.50;;
8232;SDS011;4157;48.074;9.952;2022-11-20T02:28:41;5.82;;;4.40;;
8232;SDS011;4157;48.074;9.952;2022-11-20T02:31:09;6.40;;;4.32;;
8232;SDS011;4157;48.074;9.952;2022-11-20T02:33:37;6.25;;;4.38;;
8232;SDS011;4157;48.074;9.952;2022-11-20T02:36:05;6.25;;;4.40;;
8232;SDS011;4157;48.074;9.952;2022-11-20T02:38:33;7.20;;;4.03;;
8232;SDS011;4157;48.074;9.952;2022-11-20T02:41:00;7.20;;;4.20;;
8232;SDS011;4157;48.074;9.952;2022-11-20T02:43:30;5.45;;;4.00;;
8232;SDS011;4157;48.074;9.952;2022-11-20T02:45:57;5.88;;;3.97;;
8232;SDS011;4157;48.074;9.952;2022-11-20T02:48:25;7.35;;;4.32;;
8232;SDS011;4157;48.074;9.952;2022-11-20T02:50:53;6.18;;;3.67;;
8232;SDS011;4157;48.074;9.952;2022-11-20T02:53:21;5.57;;;3.92;;
8232;SDS011;4157;48.074;9.952;2022-11-20T02:55:49;5.90;;;4.18;;
8232;SDS011;4157;48.074;9.952;2022-11-20T02:58:16;5.93;;;4.10;;
8232;SDS011;4157;48.074;9.952;2022-11-20T03:00:45;5.15;;;3.58;;
8232;SDS011;4157;48.074;9.952;2022-11-20T03:03:13;6.03;;;4.00;;
8232;SDS011;4157;48.074;9.952;2022-11-20T03:05:41;5.70;;;3.90;;
8232;SDS011;4157;48.074;9.952;2022-11-20T03:08:09;5.20;;;3.92;;
8232;SDS011;4157;48.074;9.952;2022-11-20T03:10:36;4.97;;;3.63;;
8232;SDS011;4157;48.074;9.952;2022-11-20T03:13:04;5.25;;;3.65;;
8232;SDS011;4157;48.074;9.952;2022-11-20T03:15:32;6.28;;;4.45;;
8232;SDS011;4157;48.074;9.952;2022-11-20T03:18:01;5.57;;;3.75;;
8232;SDS011;4157;48.074;9.952;2022-11-20T03:20:29;5.82;;;3.92;;
8232;SDS011;4157;48.074;9.952;2022-11-20T03:22:57;6.60;;;4.50;;
8232;SDS011;4157;48.074;9.952;2022-11-20T03:25:24;5.45;;;4.10;;
8232;SDS011;4157;48.074;9.952;2022-11-20T03:27:53;6.18;;;4.50;;
8232;SDS011;4157;48.074;9.952;2022-11-20T03:30:21;6.25;;;4.15;;
8232;SDS011;4157;48.074;9.952;2022-11-20T03:32:48;5.45;;;4.05;;
8232;SDS011;4157;48.074;9.952;2022-11-20T03:35:22;6.22;;;4.30;;
8232;SDS011;4157;48.074;9.952;2022-11-20T03:37:50;6.05;;;4.20;;
8232;SDS011;4157;48.074;9.952;2022-11-20T03:40:17;6.43;;;4.13;;
8232;SDS011;4157;48.074;9.952;2022-11-20T03:42:45;5.30;;;4.07;;
8232;SDS011;4157;48.074;9.952;2022-11-20T03:45:13;6.55;;;4.38;;
8232;SDS011;4157;48.074;9.952;2022-11-20T03:47:41;6.32;;;4.30;;
8232;SDS011;4157;48.074;9.952;2022-11-20T03:50:09;6.97;;;4.80;;
8232;SDS011;4157;48.074;9.952;2022-11-20T03:52:40;6.03;;;4.60;;
8232;SDS011;4157;48.074;9.952;2022-11-20T03:55:07;8.10;;;5.63;;
8232;SDS011;4157;48.074;9.952;2022-11-20T03:57:35;7.15;;;5.40;;
8232;SDS011;4157;48.074;9.952;2022-11-20T04:00:03;6.32;;;5.00;;
8232;SDS011;4157;48.074;9.952;2022-11-20T04:02:31;7.88;;;5.45;;
8232;SDS011;4157;48.074;9.952;2022-11-20T04:04:59;8.50;;;5.93;;
8232;SDS011;4157;48.074;9.952;2022-11-20T04:07:27;8.05;;;6.10;;
8232;SDS011;4157;48.074;9.952;2022-11-20T04:09:56;7.30;;;5.47;;
8232;SDS011;4157;48.074;9.952;2022-11-20T04:12:24;7.32;;;5.53;;
8232;SDS011;4157;48.074;9.952;2022-11-20T04:14:51;8.98;;;5.97;;
8232;SDS011;4157;48.074;9.952;2022-11-20T04:17:19;7.45;;;5.70;;
8232;SDS011;4157;48.074;9.952;2022-11-20T04:19:47;8.90;;;6.18;;
8232;SDS011;4157;48.074;9.952;2022-11-20T04:22:14;7.97;;;5.90;;
8232;SDS011;4157;48.074;9.952;2022-11-20T04:24:42;7.18;;;6.28;;
8232;SDS011;4157;48.074;9.952;2022-11-20T04:27:11;7.80;;;6.22;;
8232;SDS011;4157;48.074;9.952;2022-11-20T04:29:39;9.32;;;7.93;;
8232;SDS011;4157;48.074;9.952;2022-11-20T04:32:07;11.73;;;8.65;;
8232;SDS011;4157;48.074;9.952;2022-11-20T04:34:35;7.53;;;6.10;;
8232;SDS011;4157;48.074;9.952;2022-11-20T04:37:02;7.47;;;6.32;;
8232;SDS011;4157;48.074;9.952;2022-11-20T04:39:30;8.13;;;6.20;;
8232;SDS011;4157;48.074;9.952;2022-11-20T04:41:58;8.43;;;6.63;;
8232;SDS011;4157;48.074;9.952;2022-11-20T04:44:45;7.50;;;5.80;;
8232;SDS011;4157;48.074;9.952;2022-11-20T04:47:12;7.28;;;5.57;;
8232;SDS011;4157;48.074;9.952;2022-11-20T04:49:40;8.48;;;6.13;;
8232;SDS011;4157;48.074;9.952;2022-11-20T04:52:08;8.32;;;6.30;;
8232;SDS011;4157;48.074;9.952;2022-11-20T04:54:36;10.13;;;6.32;;
8232;SDS011;4157;48.074;9.952;2022-11-20T04:57:03;6.60;;;5.18;;
8232;SDS011;4157;48.074;9.952;2022-11-20T04:59:31;8.45;;;6.28;;
8232;SDS011;4157;48.074;9.952;2022-11-20T05:02:00;8.30;;;6.13;;
8232;SDS011;4157;48.074;9.952;2022-11-20T05:04:28;7.15;;;5.68;;
8232;SDS011;4157;48.074;9.952;2022-11-20T05:06:56;7.85;;;6.03;;
8232;SDS011;4157;48.074;9.952;2022-11-20T05:09:23;8.00;;;6.10;;
8232;SDS011;4157;48.074;9.952;2022-11-20T05:11:51;7.25;;;5.60;;
8232;SDS011;4157;48.074;9.952;2022-11-20T05:14:19;8.35;;;5.72;;
8232;SDS011;4157;48.074;9.952;2022-11-20T05:16:47;7.53;;;5.40;;
8232;SDS011;4157;48.074;9.952;2022-11-20T05:19:16;6.40;;;5.18;;
8232;SDS011;4157;48.074;9.952;2022-11-20T05:21:43;7.00;;;5.35;;
8232;SDS011;4157;48.074;9.952;2022-11-20T05:24:11;7.60;;;5.40;;
8232;SDS011;4157;48.074;9.952;2022-11-20T05:26:39;6.25;;;4.93;;
8232;SDS011;4157;48.074;9.952;2022-11-20T05:29:09;5.90;;;4.63;;
8232;SDS011;4157;48.074;9.952;2022-11-20T05:31:38;6.47;;;4.88;;
8232;SDS011;4157;48.074;9.952;2022-11-20T05:34:06;6.88;;;5.40;;
8232;SDS011;4157;48.074;9.952;2022-11-20T05:36:35;7.05;;;5.00;;
8232;SDS011;4157;48.074;9.952;2022-11-20T05:39:03;6.55;;;5.22;;
8232;SDS011;4157;48.074;9.952;2022-11-20T05:41:32;7.80;;;4.90;;
8232;SDS011;4157;48.074;9.952;2022-11-20T05:44:00;6.82;;;4.75;;
8232;SDS011;4157;48.074;9.952;2022-11-20T05:46:28;7.43;;;5.47;;
8232;SDS011;4157;48.074;9.952;2022-11-20T05:48:56;7.35;;;5.15;;
8232;SDS011;4157;48.074;9.952;2022-11-20T05:51:24;7.60;;;5.72;;
8232;SDS011;4157;48.074;9.952;2022-11-20T05:53:53;7.40;;;5.13;;
8232;SDS011;4157;48.074;9.952;2022-11-20T05:56:21;6.13;;;5.03;;
8232;SDS011;4157;48.074;9.952;2022-11-20T05:58:49;6.00;;;5.32;;
8232;SDS011;4157;48.074;9.952;2022-11-20T06:01:18;6.95;;;5.50;;
8232;SDS011;4157;48.074;9.952;2022-11-20T06:03:46;7.30;;;5.40;;
8232;SDS011;4157;48.074;9.952;2022-11-20T06:06:16;8.82;;;5.93;;
8232;SDS011;4157;48.074;9.952;2022-11-20T06:08:44;9.07;;;5.32;;
8232;SDS011;4157;48.074;9.952;2022-11-20T06:11:14;6.72;;;5.20;;
8232;SDS011;4157;48.074;9.952;2022-11-20T06:13:42;7.72;;;5.75;;
8232;SDS011;4157;48.074;9.952;2022-11-20T06:16:10;8.13;;;5.47;;
8232;SDS011;4157;48.074;9.952;2022-11-20T06:18:38;7.97;;;5.90;;
8232;SDS011;4157;48.074;9.952;2022-11-20T06:21:06;8.57;;;6.50;;
8232;SDS011;4157;48.074;9.952;2022-11-20T06:23:35;8.27;;;6.43;;
8232;SDS011;4157;48.074;9.952;2022-11-20T06:26:03;7.15;;;5.60;;
8232;SDS011;4157;48.074;9.952;2022-11-20T06:28:33;9.48;;;6.53;;
8232;SDS011;4157;48.074;9.952;2022-11-20T06:31:01;8.27;;;6.72;;
8232;SDS011;4157;48.074;9.952;2022-11-20T06:33:29;7.97;;;6.32;;
8232;SDS011;4157;48.074;9.952;2022-11-20T06:35:57;8.80;;;6.40;;
8232;SDS011;4157;48.074;9.952;2022-11-20T06:38:25;8.40;;;6.18;;
8232;SDS011;4157;48.074;9.952;2022-11-20T06:40:53;8.05;;;6.00;;
8232;SDS011;4157;48.074;9.952;2022-11-20T06:43:21;7.57;;;5.57;;
8232;SDS011;4157;48.074;9.952;2022-11-20T06:45:52;8.18;;;5.78;;
8232;SDS011;4157;48.074;9.952;2022-11-20T06:48:20;7.43;;;5.78;;
8232;SDS011;4157;48.074;9.952;2022-11-20T06:50:48;8.68;;;6.22;;
8232;SDS011;4157;48.074;9.952;2022-11-20T06:53:16;7.28;;;5.72;;
8232;SDS011;4157;48.074;9.952;2022-11-20T06:55:44;8.50;;;5.95;;
8232;SDS011;4157;48.074;9.952;2022-11-20T06:58:11;7.68;;;5.45;;
8232;SDS011;4157;48.074;9.952;2022-11-20T07:00:39;8.57;;;5.68;;
8232;SDS011;4157;48.074;9.952;2022-11-20T07:03:09;7.60;;;5.38;;
8232;SDS011;4157;48.074;9.952;2022-11-20T07:05:37;7.82;;;5.65;;
8232;SDS011;4157;48.074;9.952;2022-11-20T07:08:05;7.75;;;5.75;;
8232;SDS011;4157;48.074;9.952;2022-11-20T07:10:33;8.02;;;5.93;;
8232;SDS011;4157;48.074;9.952;2022-11-20T07:13:01;11.52;;;7.78;;
8232;SDS011;4157;48.074;9.952;2022-11-20T07:15:29;9.70;;;7.22;;
8232;SDS011;4157;48.074;9.952;2022-11-20T07:17:58;7.05;;;5.40;;
8232;SDS011;4157;48.074;9.952;2022-11-20T07:20:27;8.73;;;5.28;;
8232;SDS011;4157;48.074;9.952;2022-11-20T07:22:55;6.85;;;4.45;;
8232;SDS011;4157;48.074;9.952;2022-11-20T07:25:23;6.88;;;4.85;;
8232;SDS011;4157;48.074;9.952;2022-11-20T07:27:51;6.97;;;5.30;;
8232;SDS011;4157;48.074;9.952;2022-11-20T07:30:19;8.05;;;5.28;;
8232;SDS011;4157;48.074;9.952;2022-11-20T07:32:47;5.78;;;4.32;;
8232;SDS011;4157;48.074;9.952;2022-11-20T07:35:15;7.78;;;4.97;;
8232;SDS011;4157;48.074;9.952;2022-11-20T07:37:44;7.03;;;5.05;;
8232;SDS011;4157;48.074;9.952;2022-11-20T07:40:12;7.65;;;5.47;;
8232;SDS011;4157;48.074;9.952;2022-11-20T07:42:46;6.78;;;4.35;;
8232;SDS011;4157;48.074;9.952;2022-11-20T07:45:14;7.57;;;5.20;;
8232;SDS011;4157;48.074;9.952;2022-11-20T07:47:42;7.28;;;5.22;;
8232;SDS011;4157;48.074;9.952;2022-11-20T07:50:10;8.00;;;4.80;;
8232;SDS011;4157;48.074;9.952;2022-11-20T07:52:38;8.35;;;4.80;;
8232;SDS011;4157;48.074;9.952;2022-11-20T07:55:08;6.88;;;4.70;;
8232;SDS011;4157;48.074;9.952;2022-11-20T07:57:36;6.07;;;4.13;;
8232;SDS011;4157;48.074;9.952;2022-11-20T08:00:04;5.95;;;4.40;;
8232;SDS011;4157;48.074;9.952;2022-11-20T08:02:38;7.00;;;3.92;;
8232;SDS011;4157;48.074;9.952;2022-11-20T08:05:06;6.63;;;4.40;;
8232;SDS011;4157;48.074;9.952;2022-11-20T08:07:37;7.13;;;3.90;;
8232;SDS011;4157;48.074;9.952;2022-11-20T08:10:05;5.22;;;3.47;;
8232;SDS011;4157;48.074;9.952;2022-11-20T08:12:34;4.50;;;3.40;;
8232;SDS011;4157;48.074;9.952;2022-11-20T08:15:20;7.15;;;4.25;;
8232;SDS011;4157;48.074;9.952;2022-11-20T08:17:48;6.65;;;4.80;;
8232;SDS011;4157;48.074;9.952;2022-11-20T08:20:15;6.95;;;4.32;;
8232;SDS011;4157;48.074;9.952;2022-11-20T08:22:43;5.93;;;3.92;;
8232;SDS011;4157;48.074;9.952;2022-11-20T08:25:11;9.57;;;5.65;;
8232;SDS011;4157;48.074;9.952;2022-11-20T08:27:40;5.05;;;3.55;;
8232;SDS011;4157;48.074;9.952;2022-11-20T08:30:08;4.70;;;3.33;;
8232;SDS011;4157;48.074;9.952;2022-11-20T08:32:36;7.03;;;3.35;;
8232;SDS011;4157;48.074;9.952;2022-11-20T08:35:04;4.90;;;3.20;;
8232;SDS011;4157;48.074;9.952;2022-11-20T08:37:32;3.65;;;2.42;;
8232;SDS011;4157;48.074;9.952;2022-11-20T08:40:00;5.30;;;2.67;;
8232;SDS011;4157;48.074;9.952;2022-11-20T08:42:28;3.47;;;2.30;;
8232;SDS011;4157;48.074;9.952;2022-11-20T08:44:57;4.40;;;2.33;;
8232;SDS011;4157;48.074;9.952;2022-11-20T08:47:25;4.10;;;2.50;;
8232;SDS011;4157;48.074;9.952;2022-11-20T08:49:53;4.70;;;2.60;;
8232;SDS011;4157;48.074;9.952;2022-11-20T08:52:21;6.53;;;4.18;;
8232;SDS011;4157;48.074;9.952;2022-11-20T08:54:48;4.93;;;2.80;;
8232;SDS011;4157;48.074;9.952;2022-11-20T08:57:16;3.88;;;2.15;;
8232;SDS011;4157;48.074;9.952;2022-11-20T08:59:44;3.90;;;2.35;;
8232;SDS011;4157;48.074;9.952;2022-11-20T09:02:13;4.63;;;2.75;;
8232;SDS011;4157;48.074;9.952;2022-11-20T09:04:41;4.40;;;2.72;;
8232;SDS011;4157;48.074;9.952;2022-11-20T09:07:08;5.78;;;2.45;;
8232;SDS011;4157;48.074;9.952;2022-11-20T09:09:36;4.18;;;2.45;;
8232;SDS011;4157;48.074;9.952;2022-11-20T09:12:04;3.80;;;2.20;;
8232;SDS011;4157;48.074;9.952;2022-11-20T09:14:32;4.63;;;2.20;;
8232;SDS011;4157;48.074;9.952;2022-11-20T09:17:00;3.35;;;2.00;;
8232;SDS011;4157;48.074;9.952;2022-11-20T09:19:29;6.72;;;2.92;;
8232;SDS011;4157;48.074;9.952;2022-11-20T09:21:56;3.85;;;1.88;;
8232;SDS011;4157;48.074;9.952;2022-11-20T09:24:25;4.70;;;2.30;;
8232;SDS011;4157;48.074;9.952;2022-11-20T09:26:53;2.80;;;1.80;;
8232;SDS011;4157;48.074;9.952;2022-11-20T09:29:21;3.55;;;1.92;;
8232;SDS011;4157;48.074;9.952;2022-11-20T09:31:49;3.22;;;1.80;;
8232;SDS011;4157;48.074;9.952;2022-11-20T09:34:16;2.42;;;1.50;;
8232;SDS011;4157;48.074;9.952;2022-11-20T09:36:45;3.75;;;1.80;;
8232;SDS011;4157;48.074;9.952;2022-11-20T09:39:13;3.83;;;1.77;;
8232;SDS011;4157;48.074;9.952;2022-11-20T09:41:46;5.03;;;1.90;;
8232;SDS011;4157;48.074;9.952;2022-11-20T09:44:18;3.55;;;1.65;;
8232;SDS011;4157;48.074;9.952;2022-11-20T09:46:50;2.80;;;1.50;;
8232;SDS011;4157;48.074;9.952;2022-11-20T09:49:23;2.47;;;1.40;;
8232;SDS011;4157;48.074;9.952;2022-11-20T09:51:58;2.97;;;1.65;;
8232;SDS011;4157;48.074;9.952;2022-11-20T09:54:27;3.20;;;1.80;;
8232;SDS011;4157;48.074;9.952;2022-11-20T09:56:56;3.03;;;1.50;;
8232;SDS011;4157;48.074;9.952;2022-11-20T09:59:28;3.13;;;1.63;;
8232;SDS011;4157;48.074;9.952;2022-11-20T10:01:57;2.47;;;1.30;;
8232;SDS011;4157;48.074;9.952;2022-11-20T10:04:26;3.13;;;1.50;;
8232;SDS011;4157;48.074;9.952;2022-11-20T10:07:00;2.70;;;1.50;;
8232;SDS011;4157;48.074;9.952;2022-11-20T10:09:31;2.70;;;1.52;;
8232;SDS011;4157;48.074;9.952;2022-11-20T10:12:05;2.53;;;1.58;;
8232;SDS011;4157;48.074;9.952;2022-11-20T10:14:36;2.35;;;1.48;;
8232;SDS011;4157;48.074;9.952;2022-11-20T10:17:09;3.35;;;1.60;;
8232;SDS011;4157;48.074;9.952;2022-11-20T10:19:43;3.28;;;1.60;;
8232;SDS011;4157;48.074;9.952;2022-11-20T10:22:16;3.42;;;2.00;;
8232;SDS011;4157;48.074;9.952;2022-11-20T10:24:50;3.65;;;1.73;;
8232;SDS011;4157;48.074;9.952;2022-11-20T10:27:36;3.72;;;2.03;;
8232;SDS011;4157;48.074;9.952;2022-11-20T10:30:08;3.65;;;1.85;;
8232;SDS011;4157;48.074;9.952;2022-11-20T10:32:37;2.75;;;1.52;;
8232;SDS011;4157;48.074;9.952;2022-11-20T10:35:07;5.25;;;2.22;;
8232;SDS011;4157;48.074;9.952;2022-11-20T10:37:40;2.78;;;1.70;;
8232;SDS011;4157;48.074;9.952;2022-11-20T10:40:15;4.63;;;2.30;;
8232;SDS011;4157;48.074;9.952;2022-11-20T10:42:46;3.15;;;1.80;;
8232;SDS011;4157;48.074;9.952;2022-11-20T10:48:10;2.88;;;1.50;;
8232;SDS011;4157;48.074;9.952;2022-11-20T10:50:40;8.15;;;4.30;;
8232;SDS011;4157;48.074;9.952;2022-11-20T10:53:15;2.88;;;1.65;;
8232;SDS011;4157;48.074;9.952;2022-11-20T10:55:46;3.92;;;1.55;;
8232;SDS011;4157;48.074;9.952;2022-11-20T10:58:16;3.10;;;1.55;;
8232;SDS011;4157;48.074;9.952;2022-11-20T11:00:49;3.63;;;1.90;;
8232;SDS011;4157;48.074;9.952;2022-11-20T11:03:20;3.53;;;1.85;;
8232;SDS011;4157;48.074;9.952;2022-11-20T11:05:50;4.30;;;2.25;;
8232;SDS011;4157;48.074;9.952;2022-11-20T11:08:20;3.58;;;2.08;;
8232;SDS011;4157;48.074;9.952;2022-11-20T11:10:51;3.83;;;2.20;;
8232;SDS011;4157;48.074;9.952;2022-11-20T11:13:19;3.97;;;2.13;;
8232;SDS011;4157;48.074;9.952;2022-11-20T11:15:47;4.20;;;2.30;;
8232;SDS011;4157;48.074;9.952;2022-11-20T11:18:22;3.90;;;2.25;;
8232;SDS011;4157;48.074;9.952;2022-11-20T11:20:51;4.88;;;2.78;;
8232;SDS011;4157;48.074;9.952;2022-11-20T11:23:28;8.95;;;4.57;;
8232;SDS011;4157;48.074;9.952;2022-11-20T11:25:57;3.83;;;2.00;;
8232;SDS011;4157;48.074;9.952;2022-11-20T11:28:25;6.68;;;3.60;;
8232;SDS011;4157;48.074;9.952;2022-11-20T11:30:53;5.32;;;2.55;;
8232;SDS011;4157;48.074;9.952;2022-11-20T11:33:22;4.35;;;2.25;;
8232;SDS011;4157;48.074;9.952;2022-11-20T11:35:50;6.53;;;3.40;;
8232;SDS011;4157;48.074;9.952;2022-11-20T11:38:21;3.60;;;1.95;;
8232;SDS011;4157;48.074;9.952;2022-11-20T11:40:52;5.07;;;2.40;;
8232;SDS011;4157;48.074;9.952;2022-11-20T11:43:21;4.25;;;2.28;;
8232;SDS011;4157;48.074;9.952;2022-11-20T11:46:13;7.32;;;3.75;;
8232;SDS011;4157;48.074;9.952;2022-11-20T11:48:54;4.80;;;2.40;;
8232;SDS011;4157;48.074;9.952;2022-11-20T11:51:22;4.72;;;2.58;;
8232;SDS011;4157;48.074;9.952;2022-11-20T11:53:49;4.85;;;2.40;;
8232;SDS011;4157;48.074;9.952;2022-11-20T11:56:19;3.88;;;2.08;;
8232;SDS011;4157;48.074;9.952;2022-11-20T11:58:47;4.68;;;2.40;;
8232;SDS011;4157;48.074;9.952;2022-11-20T12:01:24;5.50;;;3.20;;
8232;SDS011;4157;48.074;9.952;2022-11-20T12:03:55;33.65;;;30.27;;
8232;SDS011;4157;48.074;9.952;2022-11-20T12:06:26;15.73;;;14.23;;
8232;SDS011;4157;48.074;9.952;2022-11-20T12:08:57;7.13;;;3.88;;
8232;SDS011;4157;48.074;9.952;2022-11-20T12:11:30;3.90;;;2.00;;
8232;SDS011;4157;48.074;9.952;2022-11-20T12:14:01;3.03;;;1.60;;
8232;SDS011;4157;48.074;9.952;2022-11-20T12:16:30;3.95;;;2.20;;
8232;SDS011;4157;48.074;9.952;2022-11-20T12:19:01;4.07;;;1.80;;
8232;SDS011;4157;48.074;9.952;2022-11-20T12:21:31;3.60;;;1.80;;
8232;SDS011;4157;48.074;9.952;2022-11-20T12:24:10;2.92;;;1.65;;
8232;SDS011;4157;48.074;9.952;2022-11-20T12:26:48;3.78;;;1.95;;
8232;SDS011;4157;48.074;9.952;2022-11-20T12:29:23;4.38;;;2.35;;
8232;SDS011;4157;48.074;9.952;2022-11-20T12:31:59;6.00;;;2.55;;
8232;SDS011;4157;48.074;9.952;2022-11-20T12:34:36;3.85;;;2.03;;
8232;SDS011;4157;48.074;9.952;2022-11-20T12:37:11;4.13;;;2.13;;
8232;SDS011;4157;48.074;9.952;2022-11-20T12:39:41;3.22;;;1.75;;
8232;SDS011;4157;48.074;9.952;2022-11-20T12:45:21;3.70;;;2.00;;
8232;SDS011;4157;48.074;9.952;2022-11-20T12:48:00;4.15;;;2.38;;
8232;SDS011;4157;48.074;9.952;2022-11-20T12:50:32;4.32;;;2.60;;
8232;SDS011;4157;48.074;9.952;2022-11-20T12:53:05;3.97;;;2.47;;
8232;SDS011;4157;48.074;9.952;2022-11-20T12:55:42;3.83;;;1.70;;
8232;SDS011;4157;48.074;9.952;2022-11-20T12:58:17;3.60;;;1.90;;
8232;SDS011;4157;48.074;9.952;2022-11-20T13:00:50;3.78;;;2.42;;
8232;SDS011;4157;48.074;9.952;2022-11-20T13:03:32;7.28;;;3.60;;
8232;SDS011;4157;48.074;9.952;2022-11-20T13:06:04;3.45;;;1.73;;
8232;SDS011;4157;48.074;9.952;2022-11-20T13:08:33;5.20;;;1.98;;
8232;SDS011;4157;48.074;9.952;2022-11-20T13:11:03;5.22;;;2.95;;
8232;SDS011;4157;48.074;9.952;2022-11-20T13:13:36;5.40;;;3.90;;
8232;SDS011;4157;48.074;9.952;2022-11-20T13:16:10;8.80;;;4.72;;
8232;SDS011;4157;48.074;9.952;2022-11-20T13:18:41;6.18;;;3.63;;
8232;SDS011;4157;48.074;9.952;2022-11-20T13:21:14;6.15;;;4.78;;
8232;SDS011;4157;48.074;9.952;2022-11-20T13:23:42;5.22;;;2.60;;
8232;SDS011;4157;48.074;9.952;2022-11-20T13:26:15;6.70;;;3.00;;
8232;SDS011;4157;48.074;9.952;2022-11-20T13:28:43;4.97;;;2.55;;
8232;SDS011;4157;48.074;9.952;2022-11-20T13:31:24;4.20;;;2.38;;
8232;SDS011;4157;48.074;9.952;2022-11-20T13:33:55;5.38;;;2.53;;
8232;SDS011;4157;48.074;9.952;2022-11-20T13:36:24;5.78;;;2.13;;
8232;SDS011;4157;48.074;9.952;2022-11-20T13:38:53;4.72;;;2.30;;
8232;SDS011;4157;48.074;9.952;2022-11-20T13:41:25;4.43;;;2.50;;
8232;SDS011;4157;48.074;9.952;2022-11-20T13:44:04;3.97;;;2.00;;
8232;SDS011;4157;48.074;9.952;2022-11-20T13:46:37;4.13;;;1.98;;
8232;SDS011;4157;48.074;9.952;2022-11-20T13:49:07;4.18;;;1.92;;
8232;SDS011;4157;48.074;9.952;2022-11-20T13:51:37;4.22;;;2.30;;
8232;SDS011;4157;48.074;9.952;2022-11-20T13:54:13;4.53;;;2.30;;
8232;SDS011;4157;48.074;9.952;2022-11-20T13:56:49;4.03;;;2.20;;
8232;SDS011;4157;48.074;9.952;2022-11-20T13:59:24;3.10;;;1.67;;
8232;SDS011;4157;48.074;9.952;2022-11-20T14:01:58;2.92;;;1.65;;
8232;SDS011;4157;48.074;9.952;2022-11-20T14:04:28;3.65;;;1.88;;
8232;SDS011;4157;48.074;9.952;2022-11-20T14:06:57;4.43;;;2.03;;
8232;SDS011;4157;48.074;9.952;2022-11-20T14:09:25;2.35;;;1.25;;
8232;SDS011;4157;48.074;9.952;2022-11-20T14:11:54;2.78;;;1.58;;
8232;SDS011;4157;48.074;9.952;2022-11-20T14:14:23;3.80;;;1.92;;
8232;SDS011;4157;48.074;9.952;2022-11-20T14:16:51;3.58;;;1.67;;
8232;SDS011;4157;48.074;9.952;2022-11-20T14:19:25;6.05;;;3.75;;
8232;SDS011;4157;48.074;9.952;2022-11-20T14:21:54;5.32;;;2.67;;
8232;SDS011;4157;48.074;9.952;2022-11-20T14:24:23;10.50;;;7.13;;
8232;SDS011;4157;48.074;9.952;2022-11-20T14:26:52;4.97;;;2.40;;
8232;SDS011;4157;48.074;9.952;2022-11-20T14:29:21;4.03;;;1.80;;
8232;SDS011;4157;48.074;9.952;2022-11-20T14:31:51;3.88;;;1.90;;
8232;SDS011;4157;48.074;9.952;2022-11-20T14:34:21;3.22;;;1.55;;
8232;SDS011;4157;48.074;9.952;2022-11-20T14:36:50;2.60;;;1.55;;
8232;SDS011;4157;48.074;9.952;2022-11-20T14:39:20;3.67;;;1.90;;
8232;SDS011;4157;48.074;9.952;2022-11-20T14:41:50;5.53;;;3.20;;
8232;SDS011;4157;48.074;9.952;2022-11-20T14:44:18;3.80;;;1.40;;
8232;SDS011;4157;48.074;9.952;2022-11-20T14:46:47;4.30;;;2.10;;
8232;SDS011;4157;48.074;9.952;2022-11-20T14:49:15;3.13;;;2.00;;
8232;SDS011;4157;48.074;9.952;2022-11-20T14:51:43;3.92;;;1.58;;
8232;SDS011;4157;48.074;9.952;2022-11-20T14:54:13;3.92;;;1.50;;
8232;SDS011;4157;48.074;9.952;2022-11-20T14:56:42;3.00;;;1.60;;
8232;SDS011;4157;48.074;9.952;2022-11-20T14:59:22;3.58;;;1.20;;
8232;SDS011;4157;48.074;9.952;2022-11-20T15:01:54;2.53;;;1.38;;
8232;SDS011;4157;48.074;9.952;2022-11-20T15:04:22;3.45;;;1.80;;
8232;SDS011;4157;48.074;9.952;2022-11-20T15:06:50;4.30;;;2.03;;
8232;SDS011;4157;48.074;9.952;2022-11-20T15:09:20;5.60;;;2.20;;
8232;SDS011;4157;48.074;9.952;2022-11-20T15:11:52;3.70;;;1.83;;
8232;SDS011;4157;48.074;9.952;2022-11-20T15:14:21;4.28;;;2.03;;
8232;SDS011;4157;48.074;9.952;2022-11-20T15:16:49;4.93;;;2.53;;
8232;SDS011;4157;48.074;9.952;2022-11-20T15:19:17;4.47;;;2.20;;
8232;SDS011;4157;48.074;9.952;2022-11-20T15:21:45;4.53;;;2.28;;
8232;SDS011;4157;48.074;9.952;2022-11-20T15:24:13;4.70;;;2.30;;
8232;SDS011;4157;48.074;9.952;2022-11-20T15:26:42;5.40;;;2.80;;
8232;SDS011;4157;48.074;9.952;2022-11-20T15:29:10;5.35;;;3.20;;
8232;SDS011;4157;48.074;9.952;2022-11-20T15:31:39;4.97;;;2.22;;
8232;SDS011;4157;48.074;9.952;2022-11-20T15:34:09;5.22;;;2.40;;
8232;SDS011;4157;48.074;9.952;2022-11-20T15:36:38;4.38;;;2.20;;
8232;SDS011;4157;48.074;9.952;2022-11-20T15:39:06;4.75;;;2.33;;